createdAt,value
2018-06-21T00:01:38.007Z,4.27
2018-06-21T00:04:07.151Z,4.73
2018-06-21T00:06:36.315Z,4.67
2018-06-21T00:09:06.274Z,4.50
2018-06-21T00:11:35.292Z,4.90
2018-06-21T00:14:04.484Z,4.40
2018-06-21T00:16:33.802Z,4.50
2018-06-21T00:19:03.019Z,4.57
2018-06-21T00:21:32.182Z,4.60
2018-06-21T00:24:01.794Z,4.77
2018-06-21T00:26:31.003Z,4.60
2018-06-21T00:29:00.170Z,4.30
2018-06-21T00:31:29.334Z,4.50
2018-06-21T00:33:58.527Z,4.93
2018-06-21T00:36:27.679Z,4.40
2018-06-21T00:38:57.639Z,4.10
2018-06-21T00:41:26.566Z,3.80
2018-06-21T00:43:55.623Z,4.30
2018-06-21T00:46:24.851Z,4.80
2018-06-21T00:48:54.042Z,5.03
2018-06-21T00:51:23.281Z,4.40
2018-06-21T00:53:52.487Z,4.40
2018-06-21T00:56:21.789Z,4.70
2018-06-21T00:58:50.966Z,4.17
2018-06-21T01:01:20.494Z,3.67
2018-06-21T01:03:49.646Z,4.33
2018-06-21T01:06:18.806Z,4.27
2018-06-21T01:08:47.984Z,3.60
2018-06-21T01:11:17.131Z,3.93
2018-06-21T01:13:46.283Z,3.80
2018-06-21T01:16:15.466Z,4.00
2018-06-21T01:18:44.626Z,4.37
2018-06-21T01:21:13.858Z,3.70
2018-06-21T01:23:43.443Z,4.13
2018-06-21T01:26:12.591Z,4.07
2018-06-21T01:28:41.731Z,3.93
2018-06-21T01:31:10.922Z,4.67
2018-06-21T01:33:40.135Z,3.83
2018-06-21T01:36:09.313Z,5.83
2018-06-21T01:38:38.511Z,5.20
2018-06-21T01:41:08.011Z,5.13
2018-06-21T01:43:36.860Z,5.50
2018-06-21T01:46:06.548Z,5.50
2018-06-21T01:48:35.722Z,5.43
2018-06-21T01:51:05.175Z,5.67
2018-06-21T01:53:34.363Z,5.40
2018-06-21T01:56:03.571Z,5.50
2018-06-21T01:58:33.026Z,5.53
2018-06-21T02:01:02.214Z,5.53
2018-06-21T02:03:31.362Z,5.80
2018-06-21T02:06:00.498Z,5.63
2018-06-21T02:08:29.937Z,6.80
2018-06-21T02:10:59.099Z,5.70
2018-06-21T02:13:28.294Z,5.87
2018-06-21T02:15:57.486Z,4.70
2018-06-21T02:18:26.647Z,5.27
2018-06-21T02:20:55.816Z,6.27
2018-06-21T02:23:25.022Z,6.00
2018-06-21T02:25:55.220Z,5.70
2018-06-21T02:28:24.406Z,5.10
2018-06-21T02:30:53.751Z,5.47
2018-06-21T02:33:22.899Z,5.00
2018-06-21T02:35:52.050Z,5.90
2018-06-21T02:38:21.312Z,5.70
2018-06-21T02:40:50.471Z,5.40
2018-06-21T02:43:20.229Z,6.13
2018-06-21T02:45:49.130Z,5.53
2018-06-21T02:48:18.171Z,5.33
2018-06-21T02:50:47.343Z,5.50
2018-06-21T02:53:16.703Z,4.53
2018-06-21T02:55:45.899Z,5.90
2018-06-21T02:58:15.138Z,5.70
2018-06-21T03:00:44.295Z,5.57
2018-06-21T03:03:13.452Z,5.73
2018-06-21T03:05:43.867Z,5.13
2018-06-21T03:08:13.104Z,5.70
2018-06-21T03:10:42.450Z,5.67
2018-06-21T03:13:11.621Z,5.10
2018-06-21T03:15:41.099Z,5.30
2018-06-21T03:18:10.278Z,6.43
2018-06-21T03:20:39.463Z,5.07
2018-06-21T03:23:08.632Z,5.70
2018-06-21T03:25:37.631Z,6.60
2018-06-21T03:28:06.661Z,5.90
2018-06-21T03:30:35.842Z,5.73
2018-06-21T03:33:05.095Z,5.53
2018-06-21T03:35:34.311Z,5.63
2018-06-21T03:38:03.272Z,5.40
2018-06-21T03:40:32.306Z,6.17
2018-06-21T03:43:01.474Z,6.00
2018-06-21T03:45:30.927Z,6.20
2018-06-21T03:48:00.195Z,5.93
2018-06-21T03:50:29.381Z,6.17
2018-06-21T03:52:58.561Z,5.40
2018-06-21T03:55:27.719Z,5.60
2018-06-21T03:57:56.898Z,6.07
2018-06-21T04:00:26.431Z,5.23
2018-06-21T04:02:55.676Z,5.50
2018-06-21T04:05:24.903Z,5.50
2018-06-21T04:07:54.301Z,5.60
2018-06-21T04:10:23.137Z,5.97
2018-06-21T04:12:52.319Z,5.50
2018-06-21T04:15:21.503Z,6.37
2018-06-21T04:17:50.680Z,4.90
2018-06-21T04:20:19.854Z,5.20
2018-06-21T04:22:49.411Z,5.20
2018-06-21T04:25:18.563Z,4.77
2018-06-21T04:27:47.731Z,5.63
2018-06-21T04:30:16.915Z,5.27
2018-06-21T04:32:46.078Z,5.57
2018-06-21T04:35:14.926Z,5.80
2018-06-21T04:37:43.985Z,6.30
2018-06-21T04:40:13.140Z,6.97
2018-06-21T04:42:42.303Z,5.60
2018-06-21T04:45:11.911Z,6.00
2018-06-21T04:47:41.487Z,7.63
2018-06-21T04:50:10.640Z,6.10
2018-06-21T04:52:39.885Z,7.13
2018-06-21T04:55:09.011Z,6.70
2018-06-21T04:57:38.170Z,5.80
2018-06-21T05:00:07.486Z,5.77
2018-06-21T05:02:36.637Z,7.00
2018-06-21T05:05:06.279Z,6.00
2018-06-21T05:07:35.730Z,5.80
2018-06-21T05:10:04.983Z,5.70
2018-06-21T05:12:34.126Z,6.20
2018-06-21T05:15:03.322Z,7.13
2018-06-21T05:17:32.544Z,6.00
2018-06-21T05:20:01.699Z,6.20
2018-06-21T05:22:30.955Z,5.73
2018-06-21T05:25:00.156Z,5.60
2018-06-21T05:27:29.445Z,6.27
2018-06-21T05:29:59.174Z,5.13
2018-06-21T05:32:28.325Z,4.93
2018-06-21T05:34:57.549Z,4.60
2018-06-21T05:37:26.899Z,5.83
2018-06-21T05:39:56.002Z,4.97
2018-06-21T05:42:25.195Z,4.20
2018-06-21T05:44:54.391Z,5.20
2018-06-21T05:47:23.867Z,4.77
2018-06-21T05:49:53.526Z,5.10
2018-06-21T05:52:23.038Z,5.53
2018-06-21T05:54:53.338Z,4.80
2018-06-21T05:57:22.494Z,5.00
2018-06-21T05:59:51.522Z,5.43
2018-06-21T06:02:20.551Z,5.33
2018-06-21T06:04:49.695Z,4.80
2018-06-21T06:07:18.914Z,4.67
2018-06-21T06:09:48.155Z,4.47
2018-06-21T06:12:17.349Z,5.10
2018-06-21T06:14:46.714Z,4.77
2018-06-21T06:17:16.045Z,5.10
2018-06-21T06:19:45.212Z,5.43
2018-06-21T06:22:14.399Z,3.70
2018-06-21T06:24:43.642Z,4.70
2018-06-21T06:27:12.837Z,3.43
2018-06-21T06:29:42.115Z,3.67
2018-06-21T06:32:11.519Z,3.73
2018-06-21T06:34:40.816Z,3.60
2018-06-21T06:37:10.423Z,3.37
2018-06-21T06:39:39.644Z,3.33
2018-06-21T06:42:08.823Z,4.27
2018-06-21T06:44:38.294Z,3.50
2018-06-21T06:47:07.139Z,3.77
2018-06-21T06:49:36.197Z,3.60
2018-06-21T06:52:05.963Z,3.20
2018-06-21T06:54:36.018Z,3.33
2018-06-21T06:57:05.350Z,4.07
2018-06-21T06:59:34.878Z,3.03
2018-06-21T07:02:04.169Z,3.77
2018-06-21T07:04:33.586Z,3.50
2018-06-21T07:07:02.772Z,3.90
2018-06-21T07:09:32.930Z,3.17
2018-06-21T07:12:02.259Z,3.40
2018-06-21T07:14:31.535Z,3.47
2018-06-21T07:17:00.849Z,2.77
2018-06-21T07:19:30.327Z,3.00
2018-06-21T07:21:59.711Z,3.57
2018-06-21T07:24:28.839Z,3.30
2018-06-21T07:26:58.045Z,2.80
2018-06-21T07:29:26.936Z,2.93
2018-06-21T07:31:55.967Z,2.50
2018-06-21T07:34:25.298Z,2.80
2018-06-21T07:36:54.661Z,2.83
2018-06-21T07:39:23.983Z,3.70
2018-06-21T07:41:53.215Z,3.07
2018-06-21T07:44:23.078Z,3.60
2018-06-21T07:46:52.245Z,3.90
2018-06-21T07:49:21.423Z,3.90
2018-06-21T07:51:50.931Z,3.23
2018-06-21T07:54:20.495Z,3.50
2018-06-21T07:56:49.705Z,3.40
2018-06-21T07:59:18.859Z,3.47
2018-06-21T08:01:47.706Z,3.53
2018-06-21T08:04:16.753Z,4.13
2018-06-21T08:06:46.043Z,3.63
2018-06-21T08:09:15.232Z,3.20
2018-06-21T08:11:44.491Z,3.60
2018-06-21T08:14:13.716Z,4.97
2018-06-21T08:16:44.650Z,4.10
2018-06-21T08:19:13.800Z,3.70
2018-06-21T08:21:42.996Z,2.90
2018-06-21T08:24:12.511Z,3.90
2018-06-21T08:26:41.705Z,4.80
2018-06-21T08:29:10.932Z,3.73
2018-06-21T08:31:40.267Z,3.20
2018-06-21T08:34:09.426Z,3.37
2018-06-21T08:36:38.651Z,4.63
2018-06-21T08:39:09.188Z,4.50
2018-06-21T08:41:39.707Z,5.07
2018-06-21T08:44:08.869Z,4.97
2018-06-21T08:46:38.046Z,5.10
2018-06-21T08:49:07.702Z,5.13
2018-06-21T08:51:36.931Z,3.97
2018-06-21T08:54:05.831Z,5.03
2018-06-21T08:56:35.346Z,5.10
2018-06-21T08:59:04.682Z,3.90
2018-06-21T09:01:33.851Z,4.80
2018-06-21T09:04:03.023Z,3.90
2018-06-21T09:06:32.193Z,4.23
2018-06-21T09:09:01.370Z,3.97
2018-06-21T09:11:31.907Z,3.70
2018-06-21T09:14:01.342Z,4.07
2018-06-21T09:16:30.746Z,3.20
2018-06-21T09:19:00.878Z,3.10
2018-06-21T09:21:30.477Z,4.10
2018-06-21T09:23:59.691Z,3.70
2018-06-21T09:26:28.899Z,3.20
2018-06-21T09:28:58.098Z,3.20
2018-06-21T09:31:27.394Z,2.40
2018-06-21T09:33:57.127Z,3.13
2018-06-21T09:36:26.163Z,3.83
2018-06-21T09:39:00.704Z,3.30
2018-06-21T09:41:35.229Z,3.53
2018-06-21T09:44:09.828Z,3.00
2018-06-21T09:46:44.155Z,2.60
2018-06-21T09:49:14.698Z,2.53
2018-06-21T09:51:43.918Z,2.47
2018-06-21T09:54:13.086Z,3.23
2018-06-21T09:56:42.998Z,2.60
2018-06-21T09:59:12.143Z,2.17
2018-06-21T10:01:41.307Z,3.27
2018-06-21T10:04:10.531Z,2.60
2018-06-21T10:06:39.715Z,2.57
2018-06-21T10:09:09.024Z,3.00
2018-06-21T10:11:38.544Z,2.57
2018-06-21T10:14:07.831Z,2.33
2018-06-21T10:16:37.934Z,2.00
2018-06-21T10:19:07.110Z,2.60
2018-06-21T10:21:36.455Z,2.77
2018-06-21T10:24:05.604Z,3.17
2018-06-21T10:26:34.944Z,1.90
2018-06-21T10:29:04.102Z,2.63
2018-06-21T10:31:33.315Z,2.50
2018-06-21T10:34:02.874Z,2.47
2018-06-21T10:36:32.186Z,2.30
2018-06-21T10:39:01.322Z,2.50
2018-06-21T10:41:30.546Z,1.90
2018-06-21T10:44:00.291Z,2.60
2018-06-21T10:46:29.427Z,2.57
2018-06-21T10:48:58.607Z,2.83
2018-06-21T10:51:27.919Z,2.90
2018-06-21T10:53:57.091Z,2.30
2018-06-21T10:56:26.335Z,2.33
2018-06-21T10:58:55.820Z,2.40
2018-06-21T11:01:24.971Z,2.63
2018-06-21T11:03:55.078Z,2.80
2018-06-21T11:06:24.340Z,3.40
2018-06-21T11:08:53.532Z,2.67
2018-06-21T11:11:22.771Z,3.00
2018-06-21T11:13:52.274Z,3.10
2018-06-21T11:16:21.555Z,2.20
2018-06-21T11:18:50.923Z,2.23
2018-06-21T11:21:19.982Z,2.00
2018-06-21T11:23:49.140Z,2.17
2018-06-21T11:26:18.336Z,2.10
2018-06-21T11:28:47.482Z,2.27
2018-06-21T11:31:16.635Z,2.00
2018-06-21T11:33:45.798Z,2.03
2018-06-21T11:36:14.951Z,2.30
2018-06-21T11:38:44.106Z,2.07
2018-06-21T11:41:13.988Z,2.40
2018-06-21T11:43:43.275Z,1.50
2018-06-21T11:46:12.421Z,1.90
2018-06-21T11:48:41.638Z,1.70
2018-06-21T11:51:10.508Z,1.60
2018-06-21T11:53:39.539Z,1.80
2018-06-21T11:56:08.722Z,2.43
2018-06-21T11:58:37.982Z,3.23
2018-06-21T12:01:07.796Z,3.70
2018-06-21T12:03:37.250Z,2.87
2018-06-21T12:06:07.433Z,3.00
2018-06-21T12:08:36.674Z,3.00
2018-06-21T12:11:06.027Z,3.17
2018-06-21T12:13:35.281Z,3.20
2018-06-21T12:16:04.499Z,3.10
2018-06-21T12:18:33.726Z,2.80
2018-06-21T12:21:03.386Z,3.17
2018-06-21T12:23:32.547Z,2.80
2018-06-21T12:26:02.107Z,3.50
2018-06-21T12:28:31.245Z,3.13
2018-06-21T12:31:00.811Z,2.93
2018-06-21T12:33:30.080Z,2.90
2018-06-21T12:35:59.593Z,2.70
2018-06-21T12:38:28.774Z,1.87
2018-06-21T12:40:58.007Z,2.23
2018-06-21T12:43:27.261Z,2.37
2018-06-21T12:45:56.406Z,2.17
2018-06-21T12:48:25.795Z,2.33
2018-06-21T12:50:55.301Z,2.60
2018-06-21T12:53:24.433Z,2.40
2018-06-21T12:55:55.710Z,2.67
2018-06-21T12:58:26.004Z,2.77
2018-06-21T13:00:55.154Z,2.40
2018-06-21T13:03:24.922Z,3.37
2018-06-21T13:05:54.399Z,2.70
2018-06-21T13:08:35.180Z,3.10
2018-06-21T13:11:15.621Z,2.67
2018-06-21T13:13:44.935Z,3.07
2018-06-21T13:16:14.175Z,3.50
2018-06-21T13:18:43.501Z,3.13
2018-06-21T13:21:13.211Z,3.20
2018-06-21T13:23:42.255Z,2.70
2018-06-21T13:26:11.428Z,3.00
2018-06-21T13:28:41.266Z,3.40
2018-06-21T13:31:11.131Z,3.97
2018-06-21T13:33:40.318Z,3.33
2018-06-21T13:36:09.555Z,4.40
2018-06-21T13:38:38.718Z,3.80
2018-06-21T13:41:08.865Z,3.63
2018-06-21T13:43:37.955Z,4.60
2018-06-21T13:46:07.119Z,4.20
2018-06-21T13:48:38.436Z,5.50
2018-06-21T13:51:08.631Z,4.30
2018-06-21T13:53:37.799Z,4.77
2018-06-21T13:56:06.966Z,3.80
2018-06-21T13:58:36.599Z,4.03
2018-06-21T14:01:05.753Z,4.70
2018-06-21T14:03:35.687Z,5.27
2018-06-21T14:06:04.855Z,5.00
2018-06-21T14:08:34.159Z,3.60
2018-06-21T14:11:04.909Z,3.90
2018-06-21T14:13:34.557Z,3.87
2018-06-21T14:16:03.760Z,4.10
2018-06-21T14:18:32.898Z,3.43
2018-06-21T14:21:02.334Z,3.60
2018-06-21T14:23:31.935Z,4.20
2018-06-21T14:26:01.140Z,2.70
2018-06-21T14:28:31.057Z,2.50
2018-06-21T14:31:00.799Z,2.60
2018-06-21T14:33:29.662Z,2.70
2018-06-21T14:35:59.372Z,2.03
2018-06-21T14:38:28.563Z,2.20
2018-06-21T14:40:57.727Z,2.20
2018-06-21T14:43:26.907Z,2.40
2018-06-21T14:45:56.141Z,2.17
2018-06-21T14:48:25.344Z,1.70
2018-06-21T14:50:54.555Z,2.07
2018-06-21T14:53:24.108Z,1.60
2018-06-21T14:55:53.500Z,2.10
2018-06-21T14:58:23.237Z,1.60
2018-06-21T15:00:52.847Z,1.47
2018-06-21T15:03:23.753Z,1.80
2018-06-21T15:05:53.903Z,1.80
2018-06-21T15:08:23.095Z,1.30
2018-06-21T15:10:52.264Z,1.57
2018-06-21T15:13:21.450Z,1.73
2018-06-21T15:15:50.811Z,1.43
2018-06-21T15:18:20.131Z,2.00
2018-06-21T15:20:49.634Z,1.33
2018-06-21T15:23:18.844Z,1.70
2018-06-21T15:25:48.011Z,1.40
2018-06-21T15:28:17.564Z,1.47
2018-06-21T15:30:46.918Z,1.50
2018-06-21T15:33:16.124Z,1.40
2018-06-21T15:35:45.652Z,1.50
2018-06-21T15:38:16.514Z,1.30
2018-06-21T15:40:46.015Z,1.40
2018-06-21T15:43:15.350Z,1.50
2018-06-21T15:45:44.594Z,1.43
2018-06-21T15:48:13.991Z,1.50
2018-06-21T15:50:43.229Z,1.60
2018-06-21T15:53:12.447Z,1.50
2018-06-21T15:55:41.825Z,1.60
2018-06-21T15:58:11.477Z,1.07
2018-06-21T16:00:41.969Z,1.30
2018-06-21T16:03:11.148Z,1.70
2018-06-21T16:05:40.639Z,2.00
2018-06-21T16:08:09.812Z,2.07
2018-06-21T16:10:39.051Z,1.53
2018-06-21T16:13:08.371Z,1.90
2018-06-21T16:15:37.511Z,1.80
2018-06-21T16:18:06.714Z,1.90
2018-06-21T16:20:36.026Z,1.27
2018-06-21T16:23:05.633Z,1.53
2018-06-21T16:25:34.829Z,1.70
2018-06-21T16:28:04.771Z,1.60
2018-06-21T16:30:34.058Z,1.60
2018-06-21T16:33:04.271Z,1.43
2018-06-21T16:35:33.911Z,1.70
2018-06-21T16:38:04.257Z,2.00
2018-06-21T16:40:33.711Z,1.60
2018-06-21T16:43:03.059Z,1.60
2018-06-21T16:45:32.317Z,1.20
2018-06-21T16:48:01.673Z,1.37
2018-06-21T16:50:31.125Z,1.70
2018-06-21T16:53:00.462Z,1.30
2018-06-21T16:55:30.791Z,1.70
2018-06-21T16:58:00.143Z,1.30
2018-06-21T17:00:31.183Z,1.33
2018-06-21T17:03:00.502Z,1.40
2018-06-21T17:05:29.798Z,1.53
2018-06-21T17:08:00.455Z,1.10
2018-06-21T17:10:30.992Z,2.27
2018-06-21T17:13:01.294Z,1.60
2018-06-21T17:15:30.705Z,1.63
2018-06-21T17:18:00.077Z,1.40
2018-06-21T17:20:36.281Z,1.50
2018-06-21T17:23:06.782Z,1.40
2018-06-21T17:25:36.985Z,1.50
2018-06-21T17:28:07.513Z,1.60
2018-06-21T17:30:37.007Z,1.40
2018-06-21T17:33:06.221Z,1.20
2018-06-21T17:35:35.557Z,1.63
2018-06-21T17:38:05.210Z,1.60
2018-06-21T17:40:34.542Z,1.60
2018-06-21T17:43:04.061Z,2.00
2018-06-21T17:45:33.339Z,1.40
2018-06-21T17:48:03.148Z,0.90
2018-06-21T17:50:32.671Z,1.90
2018-06-21T17:53:02.177Z,1.40
2018-06-21T17:55:31.632Z,1.20
2018-06-21T17:58:02.222Z,2.60
2018-06-21T18:00:33.042Z,1.63
2018-06-21T18:03:03.068Z,1.70
2018-06-21T18:05:33.291Z,1.10
2018-06-21T18:08:03.248Z,1.37
2018-06-21T18:10:34.441Z,1.80
2018-06-21T18:13:03.615Z,1.63
2018-06-21T18:15:33.356Z,1.40
2018-06-21T18:18:04.303Z,2.80
2018-06-21T18:20:33.736Z,1.43
2018-06-21T18:23:02.978Z,1.83
2018-06-21T18:25:33.019Z,1.60
2018-06-21T18:28:02.646Z,2.00
2018-06-21T18:30:31.934Z,1.93
2018-06-21T18:33:01.419Z,1.47
2018-06-21T18:35:31.015Z,1.70
2018-06-21T18:38:00.327Z,1.23
2018-06-21T18:40:31.847Z,2.50
2018-06-21T18:43:02.317Z,1.90
2018-06-21T18:45:31.655Z,1.37
2018-06-21T18:48:00.790Z,1.50
2018-06-21T18:50:29.942Z,1.93
2018-06-21T18:52:59.223Z,2.00
2018-06-21T18:55:31.555Z,2.20
2018-06-21T18:58:00.887Z,2.17
2018-06-21T19:00:30.207Z,1.80
2018-06-21T19:02:59.518Z,1.53
2018-06-21T19:05:29.167Z,3.00
2018-06-21T19:08:05.762Z,1.83
2018-06-21T19:10:41.194Z,2.10
2018-06-21T19:13:11.100Z,2.10
2018-06-21T19:15:40.430Z,2.50
2018-06-21T19:18:09.702Z,2.30
2018-06-21T19:20:39.363Z,1.90
2018-06-21T19:23:08.648Z,1.60
2018-06-21T19:25:38.033Z,1.77
2018-06-21T19:28:07.342Z,1.80
2018-06-21T19:30:36.535Z,1.97
2018-06-21T19:33:06.177Z,2.40
2018-06-21T19:35:35.727Z,2.50
2018-06-21T19:38:05.074Z,1.97
2018-06-21T19:40:35.282Z,2.40
2018-06-21T19:43:06.857Z,2.17
2018-06-21T19:45:37.370Z,2.17
2018-06-21T19:48:06.563Z,2.40
2018-06-21T19:50:36.139Z,1.40
2018-06-21T19:53:05.831Z,1.93
2018-06-21T19:55:35.070Z,2.13
2018-06-21T19:58:06.946Z,1.63
2018-06-21T20:00:36.198Z,1.87
2018-06-21T20:03:05.568Z,1.67
2018-06-21T20:05:35.071Z,2.10
2018-06-21T20:08:06.260Z,2.33
2018-06-21T20:10:35.770Z,3.00
2018-06-21T20:13:05.572Z,2.13
2018-06-21T20:15:47.233Z,2.20
2018-06-21T20:18:18.163Z,2.47
2018-06-21T20:20:48.426Z,2.00
2018-06-21T20:23:19.956Z,1.83
2018-06-21T20:25:50.502Z,2.00
2018-06-21T20:28:20.280Z,2.50
2018-06-21T20:30:49.575Z,2.13
2018-06-21T20:33:18.938Z,2.00
2018-06-21T20:35:49.423Z,1.80
2018-06-21T20:38:18.705Z,2.33
2018-06-21T20:40:48.004Z,2.77
2018-06-21T20:43:17.323Z,2.97
2018-06-21T20:45:46.586Z,2.30
2018-06-21T20:48:16.028Z,2.20
2018-06-21T20:50:45.827Z,2.40
2018-06-21T20:53:16.454Z,2.80
2018-06-21T20:55:46.143Z,2.17
2018-06-21T20:58:18.559Z,2.13
2018-06-21T21:00:47.898Z,2.13
2018-06-21T21:03:17.082Z,2.50
2018-06-21T21:05:46.239Z,2.17
2018-06-21T21:08:15.415Z,2.00
2018-06-21T21:10:44.939Z,2.00
2018-06-21T21:13:14.216Z,1.87
2018-06-21T21:15:43.359Z,2.40
2018-06-21T21:18:12.743Z,2.20
2018-06-21T21:20:41.951Z,1.80
2018-06-21T21:23:11.201Z,2.00
2018-06-21T21:25:40.462Z,2.57
2018-06-21T21:28:09.780Z,1.70
2018-06-21T21:30:38.969Z,2.10
2018-06-21T21:33:08.313Z,2.10
2018-06-21T21:35:37.478Z,1.90
2018-06-21T21:38:06.650Z,1.40
2018-06-21T21:40:35.831Z,2.67
2018-06-21T21:43:04.982Z,2.30
2018-06-21T21:45:34.131Z,1.57
2018-06-21T21:48:03.430Z,2.13
2018-06-21T21:50:32.645Z,2.00
2018-06-21T21:53:01.507Z,1.97
2018-06-21T21:55:31.283Z,2.30
2018-06-21T21:58:00.430Z,1.77
2018-06-21T22:00:46.565Z,1.67
2018-06-21T22:03:15.760Z,2.30
2018-06-21T22:05:44.862Z,2.10
2018-06-21T22:08:13.619Z,1.90
2018-06-21T22:10:43.751Z,2.30
2018-06-21T22:13:14.531Z,1.90
2018-06-21T22:15:43.766Z,1.80
2018-06-21T22:18:12.943Z,2.60
2018-06-21T22:20:42.131Z,2.60
2018-06-21T22:23:11.284Z,2.60
2018-06-21T22:25:40.434Z,1.80
2018-06-21T22:28:09.633Z,1.67
2018-06-21T22:30:38.783Z,2.07
2018-06-21T22:33:07.956Z,2.27
2018-06-21T22:35:37.251Z,2.33
2018-06-21T22:38:06.398Z,2.07
2018-06-21T22:40:35.647Z,2.40
2018-06-21T22:43:04.893Z,2.00
2018-06-21T22:45:34.056Z,2.23
2018-06-21T22:48:03.312Z,2.37
2018-06-21T22:50:32.502Z,1.77
2018-06-21T22:53:01.635Z,2.27
2018-06-21T22:55:30.781Z,2.40
2018-06-21T22:58:00.084Z,1.87
2018-06-21T23:00:29.277Z,2.10
2018-06-21T23:02:58.696Z,1.87
2018-06-21T23:05:27.884Z,1.90
2018-06-21T23:07:57.035Z,2.00
2018-06-21T23:13:01.734Z,2.03
2018-06-21T23:15:31.228Z,2.10
2018-06-21T23:18:00.387Z,2.23
2018-06-21T23:20:29.579Z,2.20
2018-06-21T23:22:58.754Z,1.70
2018-06-21T23:25:27.921Z,2.13
2018-06-21T23:27:57.107Z,2.20
2018-06-21T23:30:26.319Z,2.00
2018-06-21T23:32:55.459Z,2.00
2018-06-21T23:35:24.863Z,1.97
2018-06-21T23:37:54.010Z,2.10
2018-06-21T23:40:23.234Z,2.07
2018-06-21T23:42:52.418Z,1.30
2018-06-21T23:45:21.564Z,2.17
2018-06-21T23:47:50.753Z,1.70
2018-06-21T23:50:20.282Z,2.00
2018-06-21T23:52:49.466Z,2.00
2018-06-21T23:55:18.664Z,1.90
2018-06-21T23:57:48.221Z,2.00
